sensor_id;sensor_type;location;lat;lon;timestamp;P1;durP1;ratioP1;P2;durP2;ratioP2
15595;SDS011;7898;48.658;9.068;2023-02-28T00:00:37;3.20;;;2.33;;
15595;SDS011;7898;48.658;9.068;2023-02-28T00:03:04;3.23;;;2.40;;
15595;SDS011;7898;48.658;9.068;2023-02-28T00:05:31;5.80;;;2.73;;
15595;SDS011;7898;48.658;9.068;2023-02-28T00:07:58;4.57;;;2.70;;
15595;SDS011;7898;48.658;9.068;2023-02-28T00:10:26;4.50;;;2.50;;
15595;SDS011;7898;48.658;9.068;2023-02-28T00:12:56;4.37;;;3.13;;
15595;SDS011;7898;48.658;9.068;2023-02-28T00:15:26;3.23;;;2.33;;
15595;SDS011;7898;48.658;9.068;2023-02-28T00:17:53;4.07;;;2.77;;
15595;SDS011;7898;48.658;9.068;2023-02-28T00:20:20;2.93;;;2.23;;
15595;SDS011;7898;48.658;9.068;2023-02-28T00:22:49;3.70;;;2.30;;
15595;SDS011;7898;48.658;9.068;2023-02-28T00:25:17;4.53;;;2.70;;
15595;SDS011;7898;48.658;9.068;2023-02-28T00:27:45;3.30;;;2.37;;
15595;SDS011;7898;48.658;9.068;2023-02-28T00:30:15;3.97;;;2.40;;
15595;SDS011;7898;48.658;9.068;2023-02-28T00:32:43;3.20;;;2.53;;
15595;SDS011;7898;48.658;9.068;2023-02-28T00:35:11;4.90;;;2.63;;
15595;SDS011;7898;48.658;9.068;2023-02-28T00:37:38;4.97;;;2.50;;
15595;SDS011;7898;48.658;9.068;2023-02-28T00:40:06;2.90;;;2.20;;
15595;SDS011;7898;48.658;9.068;2023-02-28T00:42:34;5.03;;;2.63;;
15595;SDS011;7898;48.658;9.068;2023-02-28T00:45:01;4.47;;;2.50;;
15595;SDS011;7898;48.658;9.068;2023-02-28T00:47:31;2.70;;;2.10;;
15595;SDS011;7898;48.658;9.068;2023-02-28T00:49:59;3.30;;;2.70;;
15595;SDS011;7898;48.658;9.068;2023-02-28T00:52:26;3.70;;;2.40;;
15595;SDS011;7898;48.658;9.068;2023-02-28T00:54:53;4.43;;;2.67;;
15595;SDS011;7898;48.658;9.068;2023-02-28T00:57:20;4.77;;;2.40;;
15595;SDS011;7898;48.658;9.068;2023-02-28T00:59:47;3.57;;;2.90;;
15595;SDS011;7898;48.658;9.068;2023-02-28T01:02:14;3.17;;;2.50;;
15595;SDS011;7898;48.658;9.068;2023-02-28T01:04:42;3.77;;;2.30;;
15595;SDS011;7898;48.658;9.068;2023-02-28T01:07:09;2.73;;;2.17;;
15595;SDS011;7898;48.658;9.068;2023-02-28T01:09:36;3.07;;;2.70;;
15595;SDS011;7898;48.658;9.068;2023-02-28T01:12:03;4.37;;;3.10;;
15595;SDS011;7898;48.658;9.068;2023-02-28T01:14:30;4.03;;;2.70;;
15595;SDS011;7898;48.658;9.068;2023-02-28T01:16:57;4.13;;;2.63;;
15595;SDS011;7898;48.658;9.068;2023-02-28T01:19:24;5.40;;;2.63;;
15595;SDS011;7898;48.658;9.068;2023-02-28T01:21:52;3.83;;;2.53;;
15595;SDS011;7898;48.658;9.068;2023-02-28T01:24:19;3.63;;;2.23;;
15595;SDS011;7898;48.658;9.068;2023-02-28T01:26:46;3.90;;;2.60;;
15595;SDS011;7898;48.658;9.068;2023-02-28T01:29:13;3.77;;;2.73;;
15595;SDS011;7898;48.658;9.068;2023-02-28T01:31:41;3.33;;;2.47;;
15595;SDS011;7898;48.658;9.068;2023-02-28T01:34:07;4.20;;;2.27;;
15595;SDS011;7898;48.658;9.068;2023-02-28T01:36:34;5.47;;;2.90;;
15595;SDS011;7898;48.658;9.068;2023-02-28T01:39:03;3.20;;;2.77;;
15595;SDS011;7898;48.658;9.068;2023-02-28T01:41:31;4.67;;;2.83;;
15595;SDS011;7898;48.658;9.068;2023-02-28T01:44:01;5.07;;;2.77;;
15595;SDS011;7898;48.658;9.068;2023-02-28T01:46:30;4.20;;;2.67;;
15595;SDS011;7898;48.658;9.068;2023-02-28T01:48:59;4.60;;;2.63;;
15595;SDS011;7898;48.658;9.068;2023-02-28T01:51:33;4.67;;;2.73;;
15595;SDS011;7898;48.658;9.068;2023-02-28T01:54:07;5.57;;;3.20;;
15595;SDS011;7898;48.658;9.068;2023-02-28T01:56:38;4.13;;;2.50;;
15595;SDS011;7898;48.658;9.068;2023-02-28T01:59:09;4.23;;;2.67;;
15595;SDS011;7898;48.658;9.068;2023-02-28T02:01:39;3.60;;;2.60;;
15595;SDS011;7898;48.658;9.068;2023-02-28T02:04:05;4.40;;;2.43;;
15595;SDS011;7898;48.658;9.068;2023-02-28T02:06:34;3.73;;;2.80;;
15595;SDS011;7898;48.658;9.068;2023-02-28T02:09:04;4.33;;;2.67;;
15595;SDS011;7898;48.658;9.068;2023-02-28T02:11:32;5.30;;;2.90;;
15595;SDS011;7898;48.658;9.068;2023-02-28T02:14:05;3.70;;;3.17;;
15595;SDS011;7898;48.658;9.068;2023-02-28T02:16:42;3.70;;;3.17;;
15595;SDS011;7898;48.658;9.068;2023-02-28T02:19:28;4.17;;;2.70;;
15595;SDS011;7898;48.658;9.068;2023-02-28T02:22:21;5.90;;;3.30;;
15595;SDS011;7898;48.658;9.068;2023-02-28T02:25:14;5.50;;;3.00;;
15595;SDS011;7898;48.658;9.068;2023-02-28T02:30:59;5.67;;;2.97;;
15595;SDS011;7898;48.658;9.068;2023-02-28T02:34:19;5.67;;;3.07;;
15595;SDS011;7898;48.658;9.068;2023-02-28T02:36:56;3.80;;;2.73;;
15595;SDS011;7898;48.658;9.068;2023-02-28T02:39:31;4.57;;;3.23;;
15595;SDS011;7898;48.658;9.068;2023-02-28T02:42:08;4.37;;;2.97;;
15595;SDS011;7898;48.658;9.068;2023-02-28T02:44:40;5.97;;;3.27;;
15595;SDS011;7898;48.658;9.068;2023-02-28T02:47:12;5.07;;;3.47;;
15595;SDS011;7898;48.658;9.068;2023-02-28T02:49:44;5.67;;;2.87;;
15595;SDS011;7898;48.658;9.068;2023-02-28T02:52:15;4.67;;;2.90;;
15595;SDS011;7898;48.658;9.068;2023-02-28T02:54:46;5.77;;;3.73;;
15595;SDS011;7898;48.658;9.068;2023-02-28T02:57:20;5.80;;;3.50;;
15595;SDS011;7898;48.658;9.068;2023-02-28T02:59:51;6.17;;;3.53;;
15595;SDS011;7898;48.658;9.068;2023-02-28T03:02:21;4.57;;;3.70;;
15595;SDS011;7898;48.658;9.068;2023-02-28T03:04:53;5.20;;;3.33;;
15595;SDS011;7898;48.658;9.068;2023-02-28T03:07:25;5.60;;;3.67;;
15595;SDS011;7898;48.658;9.068;2023-02-28T03:09:53;5.70;;;3.87;;
15595;SDS011;7898;48.658;9.068;2023-02-28T03:12:21;6.40;;;3.80;;
15595;SDS011;7898;48.658;9.068;2023-02-28T03:14:56;4.27;;;2.70;;
15595;SDS011;7898;48.658;9.068;2023-02-28T03:17:38;6.83;;;3.07;;
15595;SDS011;7898;48.658;9.068;2023-02-28T03:20:24;6.03;;;3.63;;
15595;SDS011;7898;48.658;9.068;2023-02-28T03:23:03;3.87;;;3.27;;
15595;SDS011;7898;48.658;9.068;2023-02-28T03:25:41;4.07;;;3.20;;
15595;SDS011;7898;48.658;9.068;2023-02-28T03:28:19;5.27;;;4.13;;
15595;SDS011;7898;48.658;9.068;2023-02-28T03:30:54;7.40;;;4.20;;
15595;SDS011;7898;48.658;9.068;2023-02-28T03:33:26;4.77;;;3.53;;
15595;SDS011;7898;48.658;9.068;2023-02-28T03:35:59;4.93;;;3.40;;
15595;SDS011;7898;48.658;9.068;2023-02-28T03:38:31;8.00;;;3.63;;
15595;SDS011;7898;48.658;9.068;2023-02-28T03:41:04;5.47;;;3.87;;
15595;SDS011;7898;48.658;9.068;2023-02-28T03:43:35;5.33;;;3.80;;
15595;SDS011;7898;48.658;9.068;2023-02-28T03:46:07;6.60;;;4.37;;
15595;SDS011;7898;48.658;9.068;2023-02-28T03:48:38;7.47;;;4.10;;
15595;SDS011;7898;48.658;9.068;2023-02-28T03:51:10;5.23;;;3.60;;
15595;SDS011;7898;48.658;9.068;2023-02-28T03:53:42;4.93;;;3.83;;
15595;SDS011;7898;48.658;9.068;2023-02-28T03:56:12;5.10;;;3.70;;
15595;SDS011;7898;48.658;9.068;2023-02-28T03:58:44;6.60;;;4.03;;
15595;SDS011;7898;48.658;9.068;2023-02-28T04:01:19;4.80;;;3.70;;
15595;SDS011;7898;48.658;9.068;2023-02-28T04:03:49;5.47;;;4.00;;
15595;SDS011;7898;48.658;9.068;2023-02-28T04:06:19;5.43;;;3.70;;
15595;SDS011;7898;48.658;9.068;2023-02-28T04:08:47;6.53;;;4.37;;
15595;SDS011;7898;48.658;9.068;2023-02-28T04:11:19;5.97;;;3.80;;
15595;SDS011;7898;48.658;9.068;2023-02-28T04:13:48;4.87;;;3.87;;
15595;SDS011;7898;48.658;9.068;2023-02-28T04:16:15;4.47;;;3.87;;
15595;SDS011;7898;48.658;9.068;2023-02-28T04:18:42;5.90;;;4.20;;
15595;SDS011;7898;48.658;9.068;2023-02-28T04:21:09;6.53;;;4.07;;
15595;SDS011;7898;48.658;9.068;2023-02-28T04:23:38;5.83;;;4.53;;
15595;SDS011;7898;48.658;9.068;2023-02-28T04:26:05;5.73;;;4.13;;
15595;SDS011;7898;48.658;9.068;2023-02-28T04:28:36;5.23;;;4.23;;
15595;SDS011;7898;48.658;9.068;2023-02-28T04:31:04;8.20;;;4.50;;
15595;SDS011;7898;48.658;9.068;2023-02-28T04:33:32;6.93;;;4.00;;
15595;SDS011;7898;48.658;9.068;2023-02-28T04:35:59;7.53;;;4.60;;
15595;SDS011;7898;48.658;9.068;2023-02-28T04:38:28;5.17;;;3.63;;
15595;SDS011;7898;48.658;9.068;2023-02-28T04:40:58;4.87;;;4.33;;
15595;SDS011;7898;48.658;9.068;2023-02-28T04:43:25;7.97;;;4.33;;
15595;SDS011;7898;48.658;9.068;2023-02-28T04:45:52;5.57;;;3.77;;
15595;SDS011;7898;48.658;9.068;2023-02-28T04:48:21;9.40;;;5.00;;
15595;SDS011;7898;48.658;9.068;2023-02-28T04:50:49;12.03;;;4.37;;
15595;SDS011;7898;48.658;9.068;2023-02-28T04:53:16;8.60;;;4.77;;
15595;SDS011;7898;48.658;9.068;2023-02-28T04:55:43;6.87;;;4.87;;
15595;SDS011;7898;48.658;9.068;2023-02-28T04:58:12;6.83;;;4.10;;
15595;SDS011;7898;48.658;9.068;2023-02-28T05:00:39;6.03;;;4.20;;
15595;SDS011;7898;48.658;9.068;2023-02-28T05:03:06;8.97;;;4.47;;
15595;SDS011;7898;48.658;9.068;2023-02-28T05:05:33;6.17;;;3.90;;
15595;SDS011;7898;48.658;9.068;2023-02-28T05:07:59;9.07;;;4.87;;
15595;SDS011;7898;48.658;9.068;2023-02-28T05:10:26;6.70;;;4.37;;
15595;SDS011;7898;48.658;9.068;2023-02-28T05:12:53;7.13;;;4.60;;
15595;SDS011;7898;48.658;9.068;2023-02-28T05:15:22;7.40;;;5.03;;
15595;SDS011;7898;48.658;9.068;2023-02-28T05:17:49;8.37;;;5.33;;
15595;SDS011;7898;48.658;9.068;2023-02-28T05:20:16;7.20;;;4.97;;
15595;SDS011;7898;48.658;9.068;2023-02-28T05:22:43;8.67;;;4.80;;
15595;SDS011;7898;48.658;9.068;2023-02-28T05:25:11;7.30;;;4.37;;
15595;SDS011;7898;48.658;9.068;2023-02-28T05:27:41;9.43;;;5.13;;
15595;SDS011;7898;48.658;9.068;2023-02-28T05:30:09;8.63;;;5.13;;
15595;SDS011;7898;48.658;9.068;2023-02-28T05:32:38;7.37;;;5.03;;
15595;SDS011;7898;48.658;9.068;2023-02-28T05:35:08;9.97;;;5.30;;
15595;SDS011;7898;48.658;9.068;2023-02-28T05:37:36;9.67;;;4.97;;
15595;SDS011;7898;48.658;9.068;2023-02-28T05:40:06;6.77;;;4.70;;
15595;SDS011;7898;48.658;9.068;2023-02-28T05:42:35;7.43;;;5.07;;
15595;SDS011;7898;48.658;9.068;2023-02-28T05:45:02;8.90;;;4.90;;
15595;SDS011;7898;48.658;9.068;2023-02-28T05:47:30;9.17;;;5.17;;
15595;SDS011;7898;48.658;9.068;2023-02-28T05:49:58;9.63;;;5.10;;
15595;SDS011;7898;48.658;9.068;2023-02-28T05:52:26;7.33;;;4.57;;
15595;SDS011;7898;48.658;9.068;2023-02-28T05:54:52;7.07;;;5.17;;
15595;SDS011;7898;48.658;9.068;2023-02-28T05:57:19;9.30;;;5.43;;
15595;SDS011;7898;48.658;9.068;2023-02-28T05:59:46;8.43;;;4.97;;
15595;SDS011;7898;48.658;9.068;2023-02-28T06:02:15;6.97;;;5.07;;
15595;SDS011;7898;48.658;9.068;2023-02-28T06:04:43;6.77;;;5.53;;
15595;SDS011;7898;48.658;9.068;2023-02-28T06:07:12;7.63;;;5.13;;
15595;SDS011;7898;48.658;9.068;2023-02-28T06:09:40;7.47;;;4.97;;
15595;SDS011;7898;48.658;9.068;2023-02-28T06:12:06;8.67;;;5.67;;
15595;SDS011;7898;48.658;9.068;2023-02-28T06:14:35;9.03;;;5.80;;
15595;SDS011;7898;48.658;9.068;2023-02-28T06:17:02;9.03;;;5.50;;
15595;SDS011;7898;48.658;9.068;2023-02-28T06:19:30;10.93;;;5.63;;
15595;SDS011;7898;48.658;9.068;2023-02-28T06:21:57;9.43;;;5.87;;
15595;SDS011;7898;48.658;9.068;2023-02-28T06:24:26;9.43;;;5.57;;
15595;SDS011;7898;48.658;9.068;2023-02-28T06:26:56;12.73;;;5.57;;
15595;SDS011;7898;48.658;9.068;2023-02-28T06:29:24;8.63;;;6.00;;
15595;SDS011;7898;48.658;9.068;2023-02-28T06:31:51;10.13;;;6.07;;
15595;SDS011;7898;48.658;9.068;2023-02-28T06:34:17;9.43;;;6.23;;
15595;SDS011;7898;48.658;9.068;2023-02-28T06:36:44;10.17;;;6.33;;
15595;SDS011;7898;48.658;9.068;2023-02-28T06:39:11;8.27;;;5.33;;
15595;SDS011;7898;48.658;9.068;2023-02-28T06:41:40;9.23;;;5.70;;
15595;SDS011;7898;48.658;9.068;2023-02-28T06:44:10;8.67;;;5.90;;
15595;SDS011;7898;48.658;9.068;2023-02-28T06:46:39;9.87;;;5.93;;
15595;SDS011;7898;48.658;9.068;2023-02-28T06:49:06;12.40;;;6.77;;
15595;SDS011;7898;48.658;9.068;2023-02-28T06:51:35;9.80;;;6.10;;
15595;SDS011;7898;48.658;9.068;2023-02-28T06:54:02;9.87;;;6.17;;
15595;SDS011;7898;48.658;9.068;2023-02-28T06:56:30;7.47;;;5.50;;
15595;SDS011;7898;48.658;9.068;2023-02-28T06:58:59;9.20;;;5.83;;
15595;SDS011;7898;48.658;9.068;2023-02-28T07:01:26;8.53;;;5.87;;
15595;SDS011;7898;48.658;9.068;2023-02-28T07:03:53;9.80;;;6.43;;
15595;SDS011;7898;48.658;9.068;2023-02-28T07:06:21;9.23;;;5.53;;
15595;SDS011;7898;48.658;9.068;2023-02-28T07:08:48;8.67;;;5.87;;
15595;SDS011;7898;48.658;9.068;2023-02-28T07:11:17;9.17;;;5.80;;
15595;SDS011;7898;48.658;9.068;2023-02-28T07:13:44;9.77;;;5.40;;
15595;SDS011;7898;48.658;9.068;2023-02-28T07:16:13;11.33;;;6.63;;
15595;SDS011;7898;48.658;9.068;2023-02-28T07:18:40;10.53;;;6.53;;
15595;SDS011;7898;48.658;9.068;2023-02-28T07:21:08;11.73;;;7.10;;
15595;SDS011;7898;48.658;9.068;2023-02-28T07:23:36;9.00;;;6.47;;
15595;SDS011;7898;48.658;9.068;2023-02-28T07:26:04;9.20;;;6.63;;
15595;SDS011;7898;48.658;9.068;2023-02-28T07:28:31;9.43;;;6.07;;
15595;SDS011;7898;48.658;9.068;2023-02-28T07:31:02;10.23;;;6.70;;
15595;SDS011;7898;48.658;9.068;2023-02-28T07:33:31;10.63;;;7.07;;
15595;SDS011;7898;48.658;9.068;2023-02-28T07:36:00;12.57;;;6.73;;
15595;SDS011;7898;48.658;9.068;2023-02-28T07:38:27;9.33;;;6.57;;
15595;SDS011;7898;48.658;9.068;2023-02-28T07:40:54;9.73;;;6.30;;
15595;SDS011;7898;48.658;9.068;2023-02-28T07:43:21;12.40;;;6.83;;
15595;SDS011;7898;48.658;9.068;2023-02-28T07:45:48;9.23;;;6.37;;
15595;SDS011;7898;48.658;9.068;2023-02-28T07:48:15;11.13;;;6.37;;
15595;SDS011;7898;48.658;9.068;2023-02-28T07:50:43;10.37;;;6.70;;
15595;SDS011;7898;48.658;9.068;2023-02-28T07:53:13;8.80;;;6.37;;
15595;SDS011;7898;48.658;9.068;2023-02-28T07:55:40;10.67;;;6.80;;
15595;SDS011;7898;48.658;9.068;2023-02-28T07:58:07;9.80;;;6.07;;
15595;SDS011;7898;48.658;9.068;2023-02-28T08:00:34;10.17;;;6.33;;
15595;SDS011;7898;48.658;9.068;2023-02-28T08:03:00;10.47;;;6.67;;
15595;SDS011;7898;48.658;9.068;2023-02-28T08:05:27;12.87;;;7.93;;
15595;SDS011;7898;48.658;9.068;2023-02-28T08:07:56;10.63;;;7.53;;
15595;SDS011;7898;48.658;9.068;2023-02-28T08:10:23;11.97;;;7.57;;
15595;SDS011;7898;48.658;9.068;2023-02-28T08:12:50;10.60;;;7.00;;
15595;SDS011;7898;48.658;9.068;2023-02-28T08:15:17;10.50;;;7.23;;
15595;SDS011;7898;48.658;9.068;2023-02-28T08:17:44;9.33;;;6.80;;
15595;SDS011;7898;48.658;9.068;2023-02-28T08:20:11;13.33;;;8.03;;
15595;SDS011;7898;48.658;9.068;2023-02-28T08:22:39;9.63;;;7.03;;
15595;SDS011;7898;48.658;9.068;2023-02-28T08:25:08;12.57;;;7.37;;
15595;SDS011;7898;48.658;9.068;2023-02-28T08:27:36;11.90;;;7.30;;
15595;SDS011;7898;48.658;9.068;2023-02-28T08:30:03;10.60;;;7.80;;
15595;SDS011;7898;48.658;9.068;2023-02-28T08:32:31;13.10;;;8.10;;
15595;SDS011;7898;48.658;9.068;2023-02-28T08:34:59;15.07;;;8.13;;
15595;SDS011;7898;48.658;9.068;2023-02-28T08:37:26;13.97;;;8.40;;
15595;SDS011;7898;48.658;9.068;2023-02-28T08:39:53;12.73;;;8.00;;
15595;SDS011;7898;48.658;9.068;2023-02-28T08:42:22;10.53;;;7.03;;
15595;SDS011;7898;48.658;9.068;2023-02-28T08:44:49;14.60;;;7.80;;
15595;SDS011;7898;48.658;9.068;2023-02-28T08:47:16;12.37;;;7.50;;
15595;SDS011;7898;48.658;9.068;2023-02-28T08:49:43;11.50;;;7.40;;
15595;SDS011;7898;48.658;9.068;2023-02-28T08:52:10;10.40;;;7.30;;
15595;SDS011;7898;48.658;9.068;2023-02-28T08:54:37;12.77;;;7.40;;
15595;SDS011;7898;48.658;9.068;2023-02-28T08:57:03;10.47;;;7.80;;
15595;SDS011;7898;48.658;9.068;2023-02-28T08:59:32;12.30;;;7.57;;
15595;SDS011;7898;48.658;9.068;2023-02-28T09:01:59;12.37;;;7.43;;
15595;SDS011;7898;48.658;9.068;2023-02-28T09:04:26;11.30;;;7.33;;
15595;SDS011;7898;48.658;9.068;2023-02-28T09:06:55;12.27;;;7.40;;
15595;SDS011;7898;48.658;9.068;2023-02-28T09:09:25;15.13;;;8.63;;
15595;SDS011;7898;48.658;9.068;2023-02-28T09:11:52;10.23;;;6.70;;
15595;SDS011;7898;48.658;9.068;2023-02-28T09:14:22;13.77;;;8.00;;
15595;SDS011;7898;48.658;9.068;2023-02-28T09:16:50;11.87;;;7.30;;
15595;SDS011;7898;48.658;9.068;2023-02-28T09:19:17;13.77;;;7.47;;
15595;SDS011;7898;48.658;9.068;2023-02-28T09:21:44;16.37;;;8.17;;
15595;SDS011;7898;48.658;9.068;2023-02-28T09:24:11;12.13;;;8.60;;
15595;SDS011;7898;48.658;9.068;2023-02-28T09:26:39;10.53;;;7.07;;
15595;SDS011;7898;48.658;9.068;2023-02-28T09:29:06;13.80;;;8.37;;
15595;SDS011;7898;48.658;9.068;2023-02-28T09:31:33;14.07;;;8.00;;
15595;SDS011;7898;48.658;9.068;2023-02-28T09:34:01;10.47;;;7.60;;
15595;SDS011;7898;48.658;9.068;2023-02-28T09:36:30;12.67;;;8.00;;
15595;SDS011;7898;48.658;9.068;2023-02-28T09:38:58;14.10;;;8.30;;
15595;SDS011;7898;48.658;9.068;2023-02-28T09:41:26;10.57;;;7.47;;
15595;SDS011;7898;48.658;9.068;2023-02-28T09:44:00;11.80;;;7.87;;
15595;SDS011;7898;48.658;9.068;2023-02-28T09:46:31;9.83;;;7.90;;
15595;SDS011;7898;48.658;9.068;2023-02-28T09:49:02;9.17;;;7.07;;
15595;SDS011;7898;48.658;9.068;2023-02-28T09:51:37;10.80;;;7.30;;
15595;SDS011;7898;48.658;9.068;2023-02-28T09:54:13;12.33;;;7.47;;
15595;SDS011;7898;48.658;9.068;2023-02-28T09:56:44;10.90;;;7.60;;
15595;SDS011;7898;48.658;9.068;2023-02-28T09:59:14;11.33;;;7.43;;
15595;SDS011;7898;48.658;9.068;2023-02-28T10:01:53;10.50;;;7.57;;
15595;SDS011;7898;48.658;9.068;2023-02-28T10:04:35;11.57;;;6.87;;
15595;SDS011;7898;48.658;9.068;2023-02-28T10:07:11;11.33;;;7.37;;
15595;SDS011;7898;48.658;9.068;2023-02-28T10:09:48;9.90;;;7.27;;
15595;SDS011;7898;48.658;9.068;2023-02-28T10:12:18;11.60;;;8.07;;
15595;SDS011;7898;48.658;9.068;2023-02-28T10:14:47;14.17;;;8.33;;
15595;SDS011;7898;48.658;9.068;2023-02-28T10:17:18;12.17;;;8.00;;
15595;SDS011;7898;48.658;9.068;2023-02-28T10:19:52;14.97;;;8.10;;
15595;SDS011;7898;48.658;9.068;2023-02-28T10:22:25;85.83;;;34.83;;
15595;SDS011;7898;48.658;9.068;2023-02-28T10:24:58;12.07;;;8.37;;
15595;SDS011;7898;48.658;9.068;2023-02-28T10:27:28;12.23;;;7.50;;
15595;SDS011;7898;48.658;9.068;2023-02-28T10:29:57;12.80;;;7.73;;
15595;SDS011;7898;48.658;9.068;2023-02-28T10:32:25;11.20;;;7.73;;
15595;SDS011;7898;48.658;9.068;2023-02-28T10:34:57;12.20;;;7.87;;
15595;SDS011;7898;48.658;9.068;2023-02-28T10:37:37;11.63;;;7.47;;
15595;SDS011;7898;48.658;9.068;2023-02-28T10:40:05;18.90;;;10.93;;
15595;SDS011;7898;48.658;9.068;2023-02-28T10:42:54;14.43;;;8.60;;
15595;SDS011;7898;48.658;9.068;2023-02-28T10:45:23;14.63;;;9.23;;
15595;SDS011;7898;48.658;9.068;2023-02-28T10:47:52;5.77;;;4.70;;
15595;SDS011;7898;48.658;9.068;2023-02-28T10:50:33;11.13;;;6.97;;
15595;SDS011;7898;48.658;9.068;2023-02-28T10:53:21;21.03;;;12.30;;
15595;SDS011;7898;48.658;9.068;2023-02-28T10:55:58;32.37;;;18.47;;
15595;SDS011;7898;48.658;9.068;2023-02-28T10:58:27;10.47;;;6.67;;
15595;SDS011;7898;48.658;9.068;2023-02-28T11:00:56;13.20;;;8.60;;
15595;SDS011;7898;48.658;9.068;2023-02-28T11:03:28;12.67;;;9.20;;
15595;SDS011;7898;48.658;9.068;2023-02-28T11:05:58;23.10;;;14.50;;
15595;SDS011;7898;48.658;9.068;2023-02-28T11:08:31;15.40;;;9.57;;
15595;SDS011;7898;48.658;9.068;2023-02-28T11:10:58;13.83;;;9.53;;
15595;SDS011;7898;48.658;9.068;2023-02-28T11:13:31;12.17;;;8.80;;
15595;SDS011;7898;48.658;9.068;2023-02-28T11:16:00;12.97;;;8.07;;
15595;SDS011;7898;48.658;9.068;2023-02-28T11:18:31;12.00;;;8.33;;
15595;SDS011;7898;48.658;9.068;2023-02-28T11:21:05;11.43;;;7.77;;
15595;SDS011;7898;48.658;9.068;2023-02-28T11:23:34;12.83;;;8.43;;
15595;SDS011;7898;48.658;9.068;2023-02-28T11:26:03;13.27;;;8.90;;
15595;SDS011;7898;48.658;9.068;2023-02-28T11:28:35;16.43;;;9.97;;
15595;SDS011;7898;48.658;9.068;2023-02-28T11:31:05;13.03;;;8.63;;
15595;SDS011;7898;48.658;9.068;2023-02-28T11:33:42;11.07;;;8.90;;
15595;SDS011;7898;48.658;9.068;2023-02-28T11:36:12;11.93;;;8.10;;
15595;SDS011;7898;48.658;9.068;2023-02-28T11:38:41;11.77;;;6.47;;
15595;SDS011;7898;48.658;9.068;2023-02-28T11:41:16;16.77;;;7.97;;
15595;SDS011;7898;48.658;9.068;2023-02-28T11:44:11;36.07;;;15.97;;
15595;SDS011;7898;48.658;9.068;2023-02-28T11:46:50;15.57;;;11.27;;
15595;SDS011;7898;48.658;9.068;2023-02-28T11:49:22;15.93;;;11.00;;
15595;SDS011;7898;48.658;9.068;2023-02-28T11:52:02;14.47;;;9.00;;
15595;SDS011;7898;48.658;9.068;2023-02-28T11:57:33;16.87;;;9.03;;
15595;SDS011;7898;48.658;9.068;2023-02-28T12:00:15;10.37;;;6.10;;
15595;SDS011;7898;48.658;9.068;2023-02-28T12:02:59;14.03;;;9.07;;
15595;SDS011;7898;48.658;9.068;2023-02-28T12:05:38;15.57;;;10.13;;
15595;SDS011;7898;48.658;9.068;2023-02-28T12:08:18;7.30;;;5.47;;
15595;SDS011;7898;48.658;9.068;2023-02-28T12:11:02;12.53;;;7.50;;
15595;SDS011;7898;48.658;9.068;2023-02-28T12:13:41;14.17;;;9.03;;
15595;SDS011;7898;48.658;9.068;2023-02-28T12:16:29;8.30;;;5.83;;
15595;SDS011;7898;48.658;9.068;2023-02-28T12:19:11;10.57;;;7.30;;
15595;SDS011;7898;48.658;9.068;2023-02-28T12:21:57;13.37;;;8.87;;
15595;SDS011;7898;48.658;9.068;2023-02-28T12:24:47;11.90;;;8.20;;
15595;SDS011;7898;48.658;9.068;2023-02-28T12:27:25;11.50;;;8.13;;
15595;SDS011;7898;48.658;9.068;2023-02-28T12:29:55;13.10;;;8.20;;
15595;SDS011;7898;48.658;9.068;2023-02-28T12:32:30;13.17;;;8.80;;
15595;SDS011;7898;48.658;9.068;2023-02-28T12:35:02;11.57;;;8.47;;
15595;SDS011;7898;48.658;9.068;2023-02-28T12:37:33;11.80;;;9.00;;
15595;SDS011;7898;48.658;9.068;2023-02-28T12:40:09;11.83;;;8.27;;
15595;SDS011;7898;48.658;9.068;2023-02-28T12:42:41;10.47;;;8.60;;
15595;SDS011;7898;48.658;9.068;2023-02-28T12:45:13;12.97;;;8.47;;
15595;SDS011;7898;48.658;9.068;2023-02-28T12:47:45;10.53;;;6.67;;
15595;SDS011;7898;48.658;9.068;2023-02-28T12:50:16;5.70;;;4.73;;
15595;SDS011;7898;48.658;9.068;2023-02-28T12:52:47;11.30;;;7.97;;
15595;SDS011;7898;48.658;9.068;2023-02-28T12:55:23;10.67;;;7.17;;
15595;SDS011;7898;48.658;9.068;2023-02-28T12:57:58;10.03;;;6.03;;
15595;SDS011;7898;48.658;9.068;2023-02-28T13:00:35;11.23;;;8.70;;
15595;SDS011;7898;48.658;9.068;2023-02-28T13:06:10;10.53;;;8.37;;
15595;SDS011;7898;48.658;9.068;2023-02-28T13:09:01;24.40;;;13.77;;
15595;SDS011;7898;48.658;9.068;2023-02-28T13:11:32;46.20;;;23.40;;
15595;SDS011;7898;48.658;9.068;2023-02-28T13:14:05;16.13;;;10.50;;
15595;SDS011;7898;48.658;9.068;2023-02-28T13:16:57;13.03;;;8.73;;
15595;SDS011;7898;48.658;9.068;2023-02-28T13:19:28;12.97;;;9.03;;
15595;SDS011;7898;48.658;9.068;2023-02-28T13:21:57;11.60;;;8.07;;
15595;SDS011;7898;48.658;9.068;2023-02-28T13:24:44;15.63;;;10.23;;
15595;SDS011;7898;48.658;9.068;2023-02-28T13:33:19;15.07;;;8.83;;
15595;SDS011;7898;48.658;9.068;2023-02-28T13:36:09;11.57;;;8.90;;
15595;SDS011;7898;48.658;9.068;2023-02-28T13:38:49;13.37;;;8.83;;
15595;SDS011;7898;48.658;9.068;2023-02-28T13:44:13;9.40;;;8.37;;
15595;SDS011;7898;48.658;9.068;2023-02-28T13:49:50;17.00;;;9.83;;
15595;SDS011;7898;48.658;9.068;2023-02-28T13:52:18;15.17;;;9.97;;
15595;SDS011;7898;48.658;9.068;2023-02-28T13:54:52;12.40;;;9.13;;
15595;SDS011;7898;48.658;9.068;2023-02-28T13:57:52;12.73;;;10.00;;
15595;SDS011;7898;48.658;9.068;2023-02-28T14:00:43;13.17;;;9.33;;
15595;SDS011;7898;48.658;9.068;2023-02-28T14:03:25;11.73;;;9.20;;
15595;SDS011;7898;48.658;9.068;2023-02-28T14:06:08;11.13;;;8.50;;
15595;SDS011;7898;48.658;9.068;2023-02-28T14:08:45;13.90;;;9.30;;
15595;SDS011;7898;48.658;9.068;2023-02-28T14:11:25;11.77;;;8.90;;
15595;SDS011;7898;48.658;9.068;2023-02-28T14:13:56;11.00;;;8.57;;
15595;SDS011;7898;48.658;9.068;2023-02-28T14:16:25;15.43;;;9.53;;
15595;SDS011;7898;48.658;9.068;2023-02-28T14:18:56;13.13;;;9.20;;
15595;SDS011;7898;48.658;9.068;2023-02-28T14:21:27;14.30;;;10.03;;
15595;SDS011;7898;48.658;9.068;2023-02-28T14:24:10;19.37;;;13.40;;
15595;SDS011;7898;48.658;9.068;2023-02-28T14:27:06;17.53;;;10.57;;
15595;SDS011;7898;48.658;9.068;2023-02-28T14:29:56;15.50;;;10.43;;
15595;SDS011;7898;48.658;9.068;2023-02-28T14:32:59;24.50;;;15.13;;
15595;SDS011;7898;48.658;9.068;2023-02-28T14:35:45;39.60;;;21.67;;
15595;SDS011;7898;48.658;9.068;2023-02-28T14:38:23;19.97;;;12.90;;
15595;SDS011;7898;48.658;9.068;2023-02-28T14:40:54;13.40;;;10.00;;
15595;SDS011;7898;48.658;9.068;2023-02-28T14:43:25;34.00;;;21.17;;
15595;SDS011;7898;48.658;9.068;2023-02-28T14:45:54;14.93;;;11.07;;
15595;SDS011;7898;48.658;9.068;2023-02-28T14:48:24;22.43;;;13.20;;
15595;SDS011;7898;48.658;9.068;2023-02-28T14:50:53;16.40;;;11.07;;
15595;SDS011;7898;48.658;9.068;2023-02-28T14:53:23;12.03;;;8.63;;
15595;SDS011;7898;48.658;9.068;2023-02-28T14:55:53;33.33;;;17.53;;
15595;SDS011;7898;48.658;9.068;2023-02-28T14:58:24;19.03;;;11.30;;
15595;SDS011;7898;48.658;9.068;2023-02-28T15:00:53;18.80;;;11.97;;
15595;SDS011;7898;48.658;9.068;2023-02-28T15:03:22;14.63;;;9.93;;
15595;SDS011;7898;48.658;9.068;2023-02-28T15:05:56;32.73;;;18.90;;
15595;SDS011;7898;48.658;9.068;2023-02-28T15:08:25;14.10;;;9.70;;
15595;SDS011;7898;48.658;9.068;2023-02-28T15:10:54;13.67;;;9.37;;
15595;SDS011;7898;48.658;9.068;2023-02-28T15:13:25;19.20;;;11.47;;
15595;SDS011;7898;48.658;9.068;2023-02-28T15:15:58;18.83;;;12.03;;
15595;SDS011;7898;48.658;9.068;2023-02-28T15:18:31;11.63;;;8.47;;
15595;SDS011;7898;48.658;9.068;2023-02-28T15:21:04;16.87;;;10.90;;
15595;SDS011;7898;48.658;9.068;2023-02-28T15:23:34;18.60;;;11.83;;
15595;SDS011;7898;48.658;9.068;2023-02-28T15:26:02;17.17;;;10.40;;
15595;SDS011;7898;48.658;9.068;2023-02-28T15:28:30;14.33;;;9.50;;
15595;SDS011;7898;48.658;9.068;2023-02-28T15:30:58;14.57;;;9.83;;
15595;SDS011;7898;48.658;9.068;2023-02-28T15:33:27;10.27;;;8.43;;
15595;SDS011;7898;48.658;9.068;2023-02-28T15:36:13;14.13;;;10.10;;
15595;SDS011;7898;48.658;9.068;2023-02-28T15:38:44;11.73;;;8.63;;